createdAt,value
2019-04-11T00:02:14.385Z,6.80
2019-04-11T00:05:02.355Z,6.80
2019-04-11T00:07:50.260Z,6.90
2019-04-11T00:10:38.142Z,6.90
2019-04-11T00:13:28.420Z,7.00
2019-04-11T00:16:17.153Z,7.00
2019-04-11T00:19:05.428Z,6.90
2019-04-11T00:21:53.729Z,6.90
2019-04-11T00:24:41.347Z,7.00
2019-04-11T00:27:28.915Z,6.90
2019-04-11T00:30:17.821Z,6.90
2019-04-11T00:33:06.251Z,6.90
2019-04-11T00:35:54.072Z,6.90
2019-04-11T00:38:42.354Z,6.90
2019-04-11T00:41:31.253Z,6.90
2019-04-11T00:44:19.400Z,6.90
2019-04-11T00:47:07.417Z,6.80
2019-04-11T00:49:54.741Z,6.80
2019-04-11T00:52:42.311Z,6.80
2019-04-11T00:55:31.370Z,6.80
2019-04-11T00:58:19.359Z,6.80
2019-04-11T01:01:07.260Z,6.80
2019-04-11T01:03:55.793Z,6.80
2019-04-11T01:06:44.610Z,6.70
2019-04-11T01:09:32.642Z,6.70
2019-04-11T01:12:20.648Z,6.70
2019-04-11T01:15:11.228Z,6.60
2019-04-11T01:17:58.879Z,6.60
2019-04-11T01:20:46.715Z,6.60
2019-04-11T01:23:35.353Z,6.60
2019-04-11T01:26:23.325Z,6.50
2019-04-11T01:29:11.338Z,6.50
2019-04-11T01:32:02.261Z,6.50
2019-04-11T01:34:50.916Z,6.40
2019-04-11T01:37:39.815Z,6.30
2019-04-11T01:40:27.377Z,6.30
2019-04-11T01:43:15.648Z,6.20
2019-04-11T01:46:03.925Z,6.20
2019-04-11T01:49:14.292Z,6.20
2019-04-11T01:52:02.444Z,6.10
2019-04-11T01:54:52.155Z,6.00
2019-04-11T01:57:40.243Z,6.10
2019-04-11T02:00:51.000Z,6.00
2019-04-11T02:03:46.240Z,5.90
2019-04-11T02:06:34.121Z,5.90
2019-04-11T02:09:22.094Z,5.80
2019-04-11T02:12:09.946Z,5.80
2019-04-11T02:14:58.086Z,5.80
2019-04-11T02:17:46.662Z,5.60
2019-04-11T02:20:34.233Z,5.50
2019-04-11T02:23:37.253Z,5.30
2019-04-11T02:26:29.282Z,5.20
2019-04-11T02:29:17.307Z,5.10
2019-04-11T02:32:05.610Z,5.00
2019-04-11T02:34:58.414Z,5.00
2019-04-11T02:37:44.456Z,5.00
2019-04-11T02:40:32.687Z,5.00
2019-04-11T02:43:22.437Z,4.70
2019-04-11T02:46:20.415Z,4.50
2019-04-11T02:49:01.543Z,4.50
2019-04-11T02:51:49.466Z,4.50
2019-04-11T02:54:38.921Z,4.40
2019-04-11T02:57:26.676Z,4.40
2019-04-11T03:00:15.934Z,4.20
2019-04-11T03:03:05.741Z,4.20
2019-04-11T03:05:55.447Z,4.30
2019-04-11T03:08:43.911Z,4.30
2019-04-11T03:11:34.548Z,4.10
2019-04-11T03:14:23.324Z,4.00
2019-04-11T03:17:19.668Z,4.00
2019-04-11T03:20:13.246Z,4.10
2019-04-11T03:22:58.196Z,3.90
2019-04-11T03:25:44.709Z,3.80
2019-04-11T03:28:34.039Z,3.70
2019-04-11T03:35:05.763Z,3.70
2019-04-11T03:40:04.890Z,3.70
2019-04-11T03:42:55.611Z,3.50
2019-04-11T03:45:49.638Z,3.40
2019-04-11T03:48:33.209Z,3.50
2019-04-11T03:51:08.877Z,3.40
2019-04-11T03:53:58.908Z,3.20
2019-04-11T03:56:46.704Z,3.20
2019-04-11T03:59:36.606Z,3.20
2019-04-11T04:02:24.690Z,3.20
2019-04-11T04:05:15.166Z,3.10
2019-04-11T04:08:05.613Z,3.10
2019-04-11T04:11:09.197Z,3.10
2019-04-11T04:14:21.316Z,3.00
2019-04-11T04:17:35.265Z,3.10
2019-04-11T04:20:46.088Z,3.10
2019-04-11T04:23:38.061Z,3.10
2019-04-11T04:26:26.946Z,3.10
2019-04-11T04:29:15.501Z,3.00
2019-04-11T04:32:05.219Z,2.80
2019-04-11T04:34:53.251Z,2.90
2019-04-11T04:37:43.125Z,2.90
2019-04-11T04:40:49.850Z,2.90
2019-04-11T04:43:22.720Z,2.80
2019-04-11T04:46:25.923Z,2.80
2019-04-11T04:48:59.647Z,2.90
2019-04-11T04:51:47.941Z,2.90
2019-04-11T04:54:36.520Z,2.90
2019-04-11T04:57:24.534Z,2.80
2019-04-11T05:00:14.252Z,2.70
2019-04-11T05:03:02.456Z,2.60
2019-04-11T05:05:51.093Z,2.70
2019-04-11T05:08:40.998Z,2.70
2019-04-11T05:11:28.616Z,2.70
2019-04-11T05:14:16.722Z,2.70
2019-04-11T05:17:04.308Z,2.80
2019-04-11T05:19:51.664Z,2.80
2019-04-11T05:22:39.451Z,3.00
2019-04-11T05:25:28.641Z,2.90
2019-04-11T05:28:16.163Z,2.90
2019-04-11T05:31:04.165Z,2.90
2019-04-11T05:33:51.889Z,2.90
2019-04-11T05:36:39.084Z,2.90
2019-04-11T05:39:27.544Z,2.90
2019-04-11T05:42:17.797Z,2.90
2019-04-11T05:45:06.199Z,2.80
2019-04-11T05:47:56.669Z,3.00
2019-04-11T05:50:48.010Z,3.10
2019-04-11T05:53:35.318Z,3.10
2019-04-11T05:56:28.196Z,3.20
2019-04-11T05:59:20.415Z,3.20
2019-04-11T06:02:33.694Z,3.30
2019-04-11T06:05:35.441Z,3.40
2019-04-11T06:08:27.099Z,3.50
2019-04-11T06:11:37.336Z,3.60
2019-04-11T06:14:31.245Z,3.70
2019-04-11T06:17:21.848Z,3.80
2019-04-11T06:20:29.184Z,3.90
2019-04-11T06:23:25.472Z,4.00
2019-04-11T06:26:38.727Z,4.10
2019-04-11T06:29:31.853Z,4.20
2019-04-11T06:32:50.700Z,4.30
2019-04-11T06:35:57.392Z,4.40
2019-04-11T06:38:52.073Z,4.40
2019-04-11T06:41:58.969Z,4.50
2019-04-11T06:45:06.966Z,4.50
2019-04-11T06:48:11.592Z,4.60
2019-04-11T06:51:04.360Z,4.60
2019-04-11T06:54:10.012Z,4.70
2019-04-11T06:56:57.588Z,4.80
2019-04-11T06:59:45.909Z,4.80
2019-04-11T07:02:34.116Z,4.90
2019-04-11T07:05:22.605Z,5.00
2019-04-11T07:08:10.292Z,5.10
2019-04-11T07:11:02.930Z,5.10
2019-04-11T07:14:01.910Z,5.20
2019-04-11T07:17:09.560Z,5.30
2019-04-11T07:20:15.084Z,5.40
2019-04-11T07:23:24.805Z,5.50
2019-04-11T07:26:25.208Z,5.60
2019-04-11T07:29:33.587Z,5.60
2019-04-11T07:32:25.616Z,5.70
2019-04-11T07:35:51.140Z,5.70
2019-04-11T07:38:48.716Z,5.70
2019-04-11T07:42:11.172Z,5.70
2019-04-11T07:45:02.101Z,5.70
2019-04-11T07:47:58.364Z,5.80
2019-04-11T07:50:46.606Z,5.90
2019-04-11T07:53:35.173Z,6.00
2019-04-11T07:56:40.168Z,6.00
2019-04-11T07:59:43.149Z,6.10
2019-04-11T08:02:48.478Z,6.20
2019-04-11T08:05:54.843Z,6.40
2019-04-11T08:09:00.389Z,6.40
2019-04-11T08:11:53.649Z,6.50
2019-04-11T08:14:59.373Z,6.60
2019-04-11T08:17:48.009Z,6.80
2019-04-11T08:21:10.180Z,6.90
2019-04-11T08:24:00.321Z,6.90
2019-04-11T08:27:05.852Z,6.90
2019-04-11T08:29:55.875Z,7.00
2019-04-11T08:32:53.879Z,7.20
2019-04-11T08:35:59.819Z,7.30
2019-04-11T08:38:48.811Z,7.40
2019-04-11T08:41:54.272Z,7.40
2019-04-11T08:44:43.855Z,7.40
2019-04-11T08:47:47.085Z,7.60
2019-04-11T08:50:32.972Z,7.70
2019-04-11T08:53:38.927Z,8.00
2019-04-11T08:56:27.990Z,8.10
2019-04-11T08:59:43.995Z,8.20
2019-04-11T09:02:39.401Z,8.30
2019-04-11T09:05:38.916Z,8.60
2019-04-11T09:08:58.924Z,8.60
2019-04-11T09:11:49.525Z,8.90
2019-04-11T09:14:54.869Z,9.20
2019-04-11T09:17:56.877Z,9.30
2019-04-11T09:20:53.968Z,9.30
2019-04-11T09:23:41.852Z,9.50
2019-04-11T09:26:47.940Z,9.70
2019-04-11T09:29:38.104Z,9.70
2019-04-11T09:32:53.539Z,9.70
2019-04-11T09:35:43.677Z,9.70
2019-04-11T09:38:32.747Z,9.90
2019-04-11T09:41:44.652Z,10.20
2019-04-11T09:44:49.273Z,10.30
2019-04-11T09:48:11.649Z,10.30
2019-04-11T09:51:05.605Z,10.50
2019-04-11T09:54:12.477Z,10.60
2019-04-11T09:57:20.501Z,10.70
2019-04-11T10:00:27.446Z,10.90
2019-04-11T10:03:23.467Z,10.90
2019-04-11T10:06:34.422Z,11.00
2019-04-11T10:09:24.612Z,11.40
2019-04-11T10:12:49.921Z,11.20
2019-04-11T10:15:55.748Z,11.30
2019-04-11T10:19:03.350Z,11.50
2019-04-11T10:21:56.459Z,11.50
2019-04-11T10:25:03.277Z,11.60
2019-04-11T10:28:11.199Z,11.40
2019-04-11T10:31:20.399Z,11.40
2019-04-11T10:34:25.826Z,11.60
2019-04-11T10:37:16.413Z,11.90
2019-04-11T10:40:24.097Z,11.80
2019-04-11T10:43:11.970Z,11.70
2019-04-11T10:46:13.342Z,11.40
2019-04-11T10:49:23.236Z,11.50
2019-04-11T10:52:39.407Z,11.70
2019-04-11T10:55:40.217Z,11.80
2019-04-11T10:58:35.099Z,11.90
2019-04-11T11:01:58.115Z,11.90
2019-04-11T11:04:48.739Z,12.10
2019-04-11T11:07:37.061Z,12.20
2019-04-11T11:10:27.810Z,12.40
2019-04-11T11:13:47.705Z,12.30
2019-04-11T11:16:44.957Z,12.30
2019-04-11T11:19:58.340Z,12.50
2019-04-11T11:22:56.022Z,12.50
2019-04-11T11:25:48.906Z,12.50
2019-04-11T11:28:48.737Z,12.60
2019-04-11T11:31:46.364Z,12.50
2019-04-11T11:34:39.432Z,12.30
2019-04-11T11:38:01.973Z,12.40
2019-04-11T11:41:08.032Z,12.70
2019-04-11T11:43:55.677Z,13.10
2019-04-11T11:47:08.483Z,13.20
2019-04-11T11:50:00.534Z,13.10
2019-04-11T11:53:13.204Z,13.00
2019-04-11T11:56:00.248Z,13.10
2019-04-11T11:59:11.242Z,13.20
2019-04-11T12:02:02.385Z,13.20
2019-04-11T12:05:02.621Z,13.20
2019-04-11T12:08:00.454Z,13.30
2019-04-11T12:10:59.722Z,13.20
2019-04-11T12:14:15.891Z,13.10
2019-04-11T12:17:26.910Z,13.30
2019-04-11T12:20:22.861Z,13.60
2019-04-11T12:23:42.808Z,13.40
2019-04-11T12:26:20.336Z,13.20
2019-04-11T12:29:36.398Z,12.90
2019-04-11T12:32:26.557Z,13.00
2019-04-11T12:35:28.850Z,13.30
2019-04-11T12:38:48.103Z,13.40
2019-04-11T12:41:57.456Z,13.50
2019-04-11T12:45:03.158Z,13.70
2019-04-11T12:47:53.598Z,13.90
2019-04-11T12:50:59.323Z,14.40
2019-04-11T12:53:48.118Z,14.70
2019-04-11T12:57:10.134Z,14.70
2019-04-11T13:00:06.041Z,14.40
2019-04-11T13:03:11.720Z,14.40
2019-04-11T13:06:03.428Z,14.50
2019-04-11T13:09:14.324Z,14.50
2019-04-11T13:12:02.964Z,14.80
2019-04-11T13:15:02.079Z,14.80
2019-04-11T13:18:08.988Z,14.60
2019-04-11T13:21:00.536Z,14.80
2019-04-11T13:24:10.452Z,15.00
2019-04-11T13:27:12.386Z,15.10
2019-04-11T13:30:19.696Z,15.30
2019-04-11T13:33:13.563Z,15.50
2019-04-11T13:36:14.309Z,15.70
2019-04-11T13:39:03.374Z,15.30
2019-04-11T13:42:03.897Z,15.00
2019-04-11T13:44:51.771Z,14.70
2019-04-11T13:47:57.442Z,14.40
2019-04-11T13:50:45.289Z,14.10
2019-04-11T13:53:50.899Z,14.40
2019-04-11T13:56:54.272Z,14.60
2019-04-11T13:59:59.537Z,14.90
2019-04-11T14:03:08.432Z,15.00
2019-04-11T14:05:58.043Z,15.20
2019-04-11T14:09:11.208Z,15.10
2019-04-11T14:12:05.100Z,15.00
2019-04-11T14:14:58.596Z,14.90
2019-04-11T14:18:05.026Z,14.90
2019-04-11T14:20:59.978Z,14.70
2019-04-11T14:24:00.033Z,14.50
2019-04-11T14:26:49.369Z,14.50
2019-04-11T14:29:55.017Z,14.60
2019-04-11T14:32:45.580Z,14.60
2019-04-11T14:35:51.256Z,14.60
2019-04-11T14:38:46.434Z,14.50
2019-04-11T14:41:41.521Z,14.50
2019-04-11T14:44:27.327Z,14.60
2019-04-11T14:47:40.001Z,14.80
2019-04-11T14:50:40.866Z,14.50
2019-04-11T14:53:50.619Z,14.00
2019-04-11T14:56:41.380Z,14.00
2019-04-11T14:59:33.304Z,14.50
2019-04-11T15:02:38.619Z,14.90
2019-04-11T15:05:36.224Z,15.30
2019-04-11T15:08:54.886Z,15.60
2019-04-11T15:11:50.629Z,15.30
2019-04-11T15:15:12.989Z,15.10
2019-04-11T15:18:02.575Z,14.90
2019-04-11T15:21:08.500Z,14.90
2019-04-11T15:23:56.111Z,15.30
2019-04-11T15:27:01.406Z,15.40
2019-04-11T15:29:48.652Z,15.20
2019-04-11T15:32:50.850Z,15.20
2019-04-11T15:35:38.601Z,15.50
2019-04-11T15:38:54.792Z,15.70
2019-04-11T15:41:42.916Z,16.00
2019-04-11T15:44:48.441Z,16.10
2019-04-11T15:47:37.127Z,15.90
2019-04-11T15:51:06.199Z,16.00
2019-04-11T15:53:57.649Z,16.10
2019-04-11T15:56:50.712Z,16.30
2019-04-11T15:59:57.528Z,16.50
2019-04-11T16:03:19.713Z,16.40
2019-04-11T16:06:25.445Z,16.40
2019-04-11T16:09:17.507Z,16.40
2019-04-11T16:12:16.462Z,16.00
2019-04-11T16:15:10.991Z,15.50
2019-04-11T16:18:26.985Z,15.30
2019-04-11T16:21:18.762Z,15.10
2019-04-11T16:24:16.082Z,14.80
2019-04-11T16:27:16.204Z,14.50
2019-04-11T16:30:07.914Z,14.40
2019-04-11T16:33:06.952Z,14.70
2019-04-11T16:36:03.162Z,15.50
2019-04-11T16:39:01.444Z,15.70
2019-04-11T16:41:57.676Z,15.30
2019-04-11T16:45:07.756Z,15.20
2019-04-11T16:48:03.520Z,14.90
2019-04-11T16:50:51.286Z,14.70
2019-04-11T16:53:38.434Z,14.20
2019-04-11T16:56:26.157Z,13.90
2019-04-11T16:59:14.220Z,13.60
2019-04-11T17:02:01.622Z,13.40
2019-04-11T17:04:49.498Z,13.20
2019-04-11T17:08:08.596Z,12.90
2019-04-11T17:11:19.027Z,12.70
2019-04-11T17:14:07.512Z,12.50
2019-04-11T17:16:55.372Z,12.40
2019-04-11T17:19:42.995Z,12.20
2019-04-11T17:22:30.658Z,12.10
2019-04-11T17:25:19.835Z,12.00
2019-04-11T17:28:09.122Z,11.90
2019-04-11T17:30:57.370Z,11.90
2019-04-11T17:33:45.385Z,11.80
2019-04-11T17:36:33.824Z,11.70
2019-04-11T17:39:22.180Z,11.70
2019-04-11T17:42:10.835Z,11.70
2019-04-11T17:45:00.021Z,11.60
2019-04-11T17:47:48.189Z,11.50
2019-04-11T17:50:36.707Z,11.50
2019-04-11T17:53:24.861Z,11.40
2019-04-11T17:56:12.903Z,11.30
2019-04-11T17:59:00.469Z,11.10
2019-04-11T18:01:47.743Z,10.90
2019-04-11T18:04:35.738Z,10.80
2019-04-11T18:07:23.272Z,10.70
2019-04-11T18:10:10.689Z,10.50
2019-04-11T18:13:00.520Z,10.40
2019-04-11T18:15:47.964Z,10.30
2019-04-11T18:18:35.917Z,10.10
2019-04-11T18:21:23.216Z,9.90
2019-04-11T18:24:12.440Z,9.80
2019-04-11T18:27:00.275Z,9.70
2019-04-11T18:29:48.052Z,9.70
2019-04-11T18:32:35.926Z,9.50
2019-04-11T18:35:24.404Z,9.40
2019-04-11T18:38:12.048Z,9.40
2019-04-11T18:40:59.885Z,9.30
2019-04-11T18:43:47.889Z,9.20
2019-04-11T18:46:35.541Z,9.20
2019-04-11T18:49:23.533Z,9.10
2019-04-11T18:52:19.679Z,9.00
2019-04-11T18:55:00.813Z,8.90
2019-04-11T18:57:48.384Z,8.90
2019-04-11T19:00:38.425Z,8.80
2019-04-11T19:03:35.755Z,8.80
2019-04-11T19:06:15.185Z,8.80
2019-04-11T19:09:04.377Z,8.60
2019-04-11T19:11:52.272Z,8.60
2019-04-11T19:14:40.165Z,8.70
2019-04-11T19:17:30.182Z,8.70
2019-04-11T19:20:19.236Z,8.60
2019-04-11T19:23:08.031Z,8.40
2019-04-11T19:25:56.452Z,8.40
2019-04-11T19:28:44.307Z,8.40
2019-04-11T19:31:32.016Z,8.30
2019-04-11T19:34:19.760Z,8.10
2019-04-11T19:37:07.273Z,8.00
2019-04-11T19:39:55.776Z,8.00
2019-04-11T19:42:43.316Z,8.00
2019-04-11T19:45:31.270Z,7.90
2019-04-11T19:48:18.944Z,7.70
2019-04-11T19:51:06.370Z,7.60
2019-04-11T19:53:53.765Z,7.60
2019-04-11T19:56:46.260Z,7.40
2019-04-11T19:59:34.084Z,7.30
2019-04-11T20:02:23.566Z,7.30
2019-04-11T20:05:12.249Z,7.20
2019-04-11T20:08:00.240Z,7.10
2019-04-11T20:10:48.004Z,7.10
2019-04-11T20:13:35.740Z,7.10
2019-04-11T20:16:23.544Z,6.80
2019-04-11T20:19:11.301Z,6.70
2019-04-11T20:21:59.020Z,6.80
2019-04-11T20:24:48.361Z,6.80
2019-04-11T20:27:36.724Z,6.70
2019-04-11T20:30:25.397Z,6.70
2019-04-11T20:33:13.669Z,6.50
2019-04-11T20:36:01.148Z,6.30
2019-04-11T20:38:48.952Z,6.30
2019-04-11T20:41:36.902Z,6.30
2019-04-11T20:44:27.217Z,6.20
2019-04-11T20:47:13.650Z,6.20
2019-04-11T20:50:07.237Z,6.10
2019-04-11T20:52:50.336Z,6.20
2019-04-11T20:55:39.349Z,6.10
2019-04-11T20:58:27.559Z,6.00
2019-04-11T21:01:16.047Z,5.90
2019-04-11T21:04:04.799Z,6.00
2019-04-11T21:06:52.526Z,5.90
2019-04-11T21:09:39.964Z,5.90
2019-04-11T21:12:27.768Z,5.90
2019-04-11T21:15:15.902Z,5.90
2019-04-11T21:18:03.756Z,5.90
2019-04-11T21:20:55.075Z,5.80
2019-04-11T21:23:40.568Z,5.80
2019-04-11T21:26:28.866Z,5.70
2019-04-11T21:29:17.192Z,5.70
2019-04-11T21:32:05.088Z,5.70
2019-04-11T21:34:52.704Z,5.70
2019-04-11T21:37:40.400Z,5.80
2019-04-11T21:40:28.103Z,5.70
2019-04-11T21:43:15.856Z,5.70
2019-04-11T21:46:04.059Z,5.60
2019-04-11T21:48:52.929Z,5.70
2019-04-11T21:51:42.253Z,5.60
2019-04-11T21:54:29.896Z,5.60
2019-04-11T21:57:18.583Z,5.60
2019-04-11T22:00:13.168Z,5.50
2019-04-11T22:03:01.386Z,5.50
2019-04-11T22:05:48.877Z,5.40
2019-04-11T22:08:36.761Z,5.40
2019-04-11T22:11:24.180Z,5.40
2019-04-11T22:14:11.911Z,5.40
2019-04-11T22:16:59.549Z,5.30
2019-04-11T22:19:47.156Z,5.30
2019-04-11T22:22:34.903Z,5.30
2019-04-11T22:25:22.512Z,5.20
2019-04-11T22:28:10.153Z,5.20
2019-04-11T22:30:58.044Z,5.20
2019-04-11T22:34:00.609Z,5.20
2019-04-11T22:36:48.309Z,5.00
2019-04-11T22:39:35.903Z,5.00
2019-04-11T22:42:23.744Z,4.90
2019-04-11T22:45:11.643Z,4.70
2019-04-11T22:47:59.723Z,4.60
2019-04-11T22:50:47.451Z,4.60
2019-04-11T22:53:34.861Z,4.40
2019-04-11T22:56:22.929Z,4.20
2019-04-11T22:59:13.558Z,4.00
2019-04-11T23:02:16.841Z,4.10
2019-04-11T23:05:03.737Z,4.20
2019-04-11T23:07:51.222Z,4.00
2019-04-11T23:10:38.673Z,4.00
2019-04-11T23:13:26.720Z,3.90
2019-04-11T23:16:15.009Z,4.00
2019-04-11T23:19:03.032Z,4.10
2019-04-11T23:21:50.256Z,3.90
2019-04-11T23:24:38.199Z,3.90
2019-04-11T23:27:25.865Z,3.80
2019-04-11T23:30:15.975Z,3.80
2019-04-11T23:33:04.272Z,3.80
2019-04-11T23:35:52.496Z,3.70
2019-04-11T23:38:40.032Z,3.60
2019-04-11T23:41:27.538Z,3.40
2019-04-11T23:44:17.960Z,3.40
2019-04-11T23:47:04.907Z,3.40
2019-04-11T23:49:54.926Z,3.50
2019-04-11T23:52:41.752Z,3.50
2019-04-11T23:55:30.788Z,3.30
2019-04-11T23:58:18.216Z,3.20
